sensor_id;sensor_type;location;lat;lon;timestamp;pressure;altitude;pressure_sealevel;temperature;humidity
64758;BME280;51193;45.588;5.376;2022-09-30T00:08:23;95271.22;;;9.97;66.09
64758;BME280;51193;45.588;5.376;2022-09-30T00:23:25;95275.22;;;9.85;66.30
64758;BME280;51193;45.588;5.376;2022-09-30T00:29:22;95278.84;;;9.83;66.53
64758;BME280;51193;45.588;5.376;2022-09-30T00:32:29;95278.91;;;9.81;66.72
64758;BME280;51193;45.588;5.376;2022-09-30T00:45:14;95292.38;;;9.72;66.59
64758;BME280;51193;45.588;5.376;2022-09-30T00:51:17;95295.88;;;9.71;66.76
64758;BME280;51193;45.588;5.376;2022-09-30T00:57:39;95290.81;;;9.68;66.84
64758;BME280;51193;45.588;5.376;2022-09-30T01:00:30;95294.25;;;9.69;67.03
64758;BME280;51193;45.588;5.376;2022-09-30T01:03:51;95294.25;;;9.69;66.88
64758;BME280;51193;45.588;5.376;2022-09-30T01:12:53;95279.50;;;9.67;67.08
64758;BME280;51193;45.588;5.376;2022-09-30T01:37:33;95293.09;;;9.55;67.18
64758;BME280;51193;45.588;5.376;2022-09-30T01:40:32;95289.69;;;9.53;67.50
64758;BME280;51193;45.588;5.376;2022-09-30T02:15:14;95305.50;;;9.50;67.46
64758;BME280;51193;45.588;5.376;2022-09-30T02:35:42;95309.63;;;9.56;67.42
64758;BME280;51193;45.588;5.376;2022-09-30T02:45:12;95307.97;;;9.53;67.67
64758;BME280;51193;45.588;5.376;2022-09-30T04:03:39;95338.38;;;9.13;68.32
64758;BME280;51193;45.588;5.376;2022-09-30T04:06:25;95339.22;;;9.14;68.42
64758;BME280;51193;45.588;5.376;2022-09-30T04:12:28;95360.25;;;9.09;68.61
64758;BME280;51193;45.588;5.376;2022-09-30T04:15:06;95368.09;;;9.09;68.45
64758;BME280;51193;45.588;5.376;2022-09-30T04:30:36;95378.88;;;9.00;68.70
64758;BME280;51193;45.588;5.376;2022-09-30T04:46:22;95389.84;;;9.08;68.52
64758;BME280;51193;45.588;5.376;2022-09-30T05:38:29;95434.34;;;9.25;68.73
64758;BME280;51193;45.588;5.376;2022-09-30T05:40:57;95437.22;;;9.19;68.53
64758;BME280;51193;45.588;5.376;2022-09-30T05:43:23;95446.13;;;9.14;68.43
64758;BME280;51193;45.588;5.376;2022-09-30T05:45:54;95445.28;;;9.13;68.54
64758;BME280;51193;45.588;5.376;2022-09-30T05:51:07;95444.59;;;9.08;68.23
64758;BME280;51193;45.588;5.376;2022-09-30T05:53:34;95455.03;;;9.08;68.19
64758;BME280;51193;45.588;5.376;2022-09-30T05:56:02;95452.50;;;9.06;68.26
64758;BME280;51193;45.588;5.376;2022-09-30T05:58:28;95453.34;;;9.07;68.38
64758;BME280;51193;45.588;5.376;2022-09-30T06:00:54;95461.34;;;9.02;68.40
64758;BME280;51193;45.588;5.376;2022-09-30T06:03:19;95463.09;;;9.02;68.43
64758;BME280;51193;45.588;5.376;2022-09-30T06:05:45;95465.59;;;9.05;68.31
64758;BME280;51193;45.588;5.376;2022-09-30T06:08:14;95462.84;;;9.08;68.23
64758;BME280;51193;45.588;5.376;2022-09-30T06:10:42;95472.38;;;9.09;68.41
64758;BME280;51193;45.588;5.376;2022-09-30T06:13:08;95468.81;;;9.12;68.41
64758;BME280;51193;45.588;5.376;2022-09-30T06:15:35;95481.75;;;9.15;68.25
64758;BME280;51193;45.588;5.376;2022-09-30T06:18:07;95487.66;;;9.18;68.24
64758;BME280;51193;45.588;5.376;2022-09-30T06:20:35;95493.59;;;9.22;68.13
64758;BME280;51193;45.588;5.376;2022-09-30T06:23:03;95494.44;;;9.22;68.25
64758;BME280;51193;45.588;5.376;2022-09-30T06:25:32;95499.66;;;9.22;68.19
64758;BME280;51193;45.588;5.376;2022-09-30T06:28:07;95496.16;;;9.23;67.99
64758;BME280;51193;45.588;5.376;2022-09-30T06:30:33;95500.47;;;9.24;68.14
64758;BME280;51193;45.588;5.376;2022-09-30T06:33:04;95499.50;;;9.27;68.02
64758;BME280;51193;45.588;5.376;2022-09-30T06:46:00;95514.38;;;9.25;68.14
64758;BME280;51193;45.588;5.376;2022-09-30T06:51:58;95513.41;;;9.27;67.96
64758;BME280;51193;45.588;5.376;2022-09-30T06:58:01;95514.25;;;9.28;68.25
64758;BME280;51193;45.588;5.376;2022-09-30T07:01:08;95517.63;;;9.30;68.08
64758;BME280;51193;45.588;5.376;2022-09-30T07:09:44;95528.13;;;9.29;68.13
64758;BME280;51193;45.588;5.376;2022-09-30T07:49:52;95603.84;;;9.49;68.39
64758;BME280;51193;45.588;5.376;2022-09-30T07:56:09;95618.25;;;9.59;68.10
64758;BME280;51193;45.588;5.376;2022-09-30T08:07:26;95633.19;;;9.56;68.34
64758;BME280;51193;45.588;5.376;2022-09-30T08:09:55;95644.59;;;9.53;68.31
64758;BME280;51193;45.588;5.376;2022-09-30T08:12:44;95640.94;;;9.57;68.69
64758;BME280;51193;45.588;5.376;2022-09-30T08:15:24;95643.03;;;9.71;68.40
64758;BME280;51193;45.588;5.376;2022-09-30T08:17:51;95654.31;;;9.72;68.46
64758;BME280;51193;45.588;5.376;2022-09-30T08:20:16;95664.28;;;9.62;68.53
64758;BME280;51193;45.588;5.376;2022-09-30T08:22:45;95666.44;;;9.51;68.66
64758;BME280;51193;45.588;5.376;2022-09-30T08:25:36;95668.19;;;9.50;68.59
64758;BME280;51193;45.588;5.376;2022-09-30T08:28:03;95677.00;;;9.48;68.68
64758;BME280;51193;45.588;5.376;2022-09-30T08:30:29;95669.50;;;9.38;68.76
64758;BME280;51193;45.588;5.376;2022-09-30T08:36:02;95676.47;;;9.38;68.73
64758;BME280;51193;45.588;5.376;2022-09-30T08:38:32;95690.53;;;9.34;69.05
64758;BME280;51193;45.588;5.376;2022-09-30T08:43:38;95687.47;;;9.22;69.25
64758;BME280;51193;45.588;5.376;2022-09-30T08:54:22;95707.75;;;9.39;69.25
64758;BME280;51193;45.588;5.376;2022-09-30T08:57:03;95716.19;;;9.46;69.46
64758;BME280;51193;45.588;5.376;2022-09-30T08:59:36;95713.31;;;9.54;69.39
64758;BME280;51193;45.588;5.376;2022-09-30T09:02:22;95709.53;;;9.61;69.50
64758;BME280;51193;45.588;5.376;2022-09-30T09:10:59;95718.81;;;9.92;69.09
64758;BME280;51193;45.588;5.376;2022-09-30T09:17:01;95719.16;;;10.28;69.05
64758;BME280;51193;45.588;5.376;2022-09-30T09:19:52;95734.44;;;10.39;68.61
64758;BME280;51193;45.588;5.376;2022-09-30T09:22:28;95743.84;;;10.43;68.70
64758;BME280;51193;45.588;5.376;2022-09-30T09:25:22;95751.44;;;10.49;68.59
64758;BME280;51193;45.588;5.376;2022-09-30T09:27:59;95757.66;;;10.46;68.44
64758;BME280;51193;45.588;5.376;2022-09-30T10:27:28;95787.91;;;10.74;67.83
64758;BME280;51193;45.588;5.376;2022-09-30T10:29:33;95789.47;;;10.78;67.79
64758;BME280;51193;45.588;5.376;2022-09-30T10:47:58;95806.63;;;10.85;66.82
64758;BME280;51193;45.588;5.376;2022-09-30T10:50:34;95801.41;;;10.85;67.23
64758;BME280;51193;45.588;5.376;2022-09-30T10:53:20;95808.22;;;10.90;67.00
64758;BME280;51193;45.588;5.376;2022-09-30T10:55:47;95805.53;;;10.91;67.15
64758;BME280;51193;45.588;5.376;2022-09-30T11:01:08;95816.97;;;10.88;66.93
64758;BME280;51193;45.588;5.376;2022-09-30T11:06:17;95816.41;;;10.80;67.29
64758;BME280;51193;45.588;5.376;2022-09-30T11:08:50;95820.44;;;10.67;67.45
64758;BME280;51193;45.588;5.376;2022-09-30T11:11:18;95816.25;;;10.63;67.59
64758;BME280;51193;45.588;5.376;2022-09-30T11:13:55;95815.47;;;10.61;67.58
64758;BME280;51193;45.588;5.376;2022-09-30T11:16:26;95817.84;;;10.67;67.54
64758;BME280;51193;45.588;5.376;2022-09-30T12:19:32;95846.56;;;11.11;66.65
64758;BME280;51193;45.588;5.376;2022-09-30T12:30:34;95843.97;;;11.32;66.92
64758;BME280;51193;45.588;5.376;2022-09-30T12:33:45;95834.53;;;11.27;66.54
64758;BME280;51193;45.588;5.376;2022-09-30T13:15:51;95848.41;;;11.30;66.39
64758;BME280;51193;45.588;5.376;2022-09-30T13:21:31;95845.22;;;11.43;66.25
64758;BME280;51193;45.588;5.376;2022-09-30T13:30:39;95858.91;;;11.71;66.47
64758;BME280;51193;45.588;5.376;2022-09-30T13:33:44;95858.47;;;11.81;66.03
64758;BME280;51193;45.588;5.376;2022-09-30T16:09:23;95951.22;;;13.34;61.19
64758;BME280;51193;45.588;5.376;2022-09-30T16:12:02;95944.91;;;13.38;61.14
64758;BME280;51193;45.588;5.376;2022-09-30T16:14:41;95946.38;;;13.43;61.33
64758;BME280;51193;45.588;5.376;2022-09-30T16:17:34;95937.34;;;13.49;60.88
64758;BME280;51193;45.588;5.376;2022-09-30T16:20:19;95940.84;;;13.50;60.55
64758;BME280;51193;45.588;5.376;2022-09-30T16:23:02;95933.09;;;13.46;60.52
64758;BME280;51193;45.588;5.376;2022-09-30T16:25:34;95943.66;;;13.45;60.46
64758;BME280;51193;45.588;5.376;2022-09-30T16:28:09;95948.31;;;13.40;60.10
64758;BME280;51193;45.588;5.376;2022-09-30T16:30:44;95945.97;;;13.34;60.10
64758;BME280;51193;45.588;5.376;2022-09-30T16:33:21;95952.63;;;13.22;60.10
64758;BME280;51193;45.588;5.376;2022-09-30T16:35:47;95962.69;;;13.12;60.00
64758;BME280;51193;45.588;5.376;2022-09-30T16:38:13;95956.88;;;13.05;60.22
64758;BME280;51193;45.588;5.376;2022-09-30T16:40:46;95963.44;;;12.97;60.49
64758;BME280;51193;45.588;5.376;2022-09-30T16:43:17;95959.31;;;12.91;60.34
64758;BME280;51193;45.588;5.376;2022-09-30T16:45:46;95970.03;;;12.86;60.41
64758;BME280;51193;45.588;5.376;2022-09-30T16:48:17;95965.69;;;12.85;60.55
64758;BME280;51193;45.588;5.376;2022-09-30T16:51:06;95972.78;;;12.83;60.34
64758;BME280;51193;45.588;5.376;2022-09-30T16:53:44;95965.28;;;12.76;60.94
64758;BME280;51193;45.588;5.376;2022-09-30T16:56:17;95976.03;;;12.70;61.19
64758;BME280;51193;45.588;5.376;2022-09-30T16:58:47;95975.25;;;12.67;61.37
64758;BME280;51193;45.588;5.376;2022-09-30T17:01:19;95977.94;;;12.66;61.45
64758;BME280;51193;45.588;5.376;2022-09-30T17:03:53;95980.63;;;12.64;61.45
64758;BME280;51193;45.588;5.376;2022-09-30T17:06:27;95988.56;;;12.63;61.76
64758;BME280;51193;45.588;5.376;2022-09-30T17:08:56;95986.16;;;12.58;61.14
64758;BME280;51193;45.588;5.376;2022-09-30T17:11:29;95989.88;;;12.53;61.31
64758;BME280;51193;45.588;5.376;2022-09-30T17:14:04;95977.97;;;12.45;60.93
64758;BME280;51193;45.588;5.376;2022-09-30T17:16:33;95992.22;;;12.40;60.99
64758;BME280;51193;45.588;5.376;2022-09-30T17:19:05;96000.34;;;12.34;61.12
64758;BME280;51193;45.588;5.376;2022-09-30T17:21:35;96011.09;;;12.27;60.96
64758;BME280;51193;45.588;5.376;2022-09-30T17:24:03;96001.84;;;12.19;60.84
64758;BME280;51193;45.588;5.376;2022-09-30T17:26:32;96013.38;;;12.15;61.16
64758;BME280;51193;45.588;5.376;2022-09-30T17:29:05;96007.63;;;12.06;61.11
64758;BME280;51193;45.588;5.376;2022-09-30T17:31:37;96020.03;;;12.01;60.85
64758;BME280;51193;45.588;5.376;2022-09-30T17:34:06;96021.19;;;11.96;60.90
64758;BME280;51193;45.588;5.376;2022-09-30T17:36:34;96030.13;;;11.90;61.00
64758;BME280;51193;45.588;5.376;2022-09-30T17:39:03;96026.94;;;11.82;61.31
64758;BME280;51193;45.588;5.376;2022-09-30T17:41:34;96038.50;;;11.76;60.98
64758;BME280;51193;45.588;5.376;2022-09-30T17:44:19;96049.19;;;11.72;61.32
64758;BME280;51193;45.588;5.376;2022-09-30T17:46:45;96048.38;;;11.70;61.20
64758;BME280;51193;45.588;5.376;2022-09-30T17:49:16;96056.34;;;11.66;61.20
64758;BME280;51193;45.588;5.376;2022-09-30T17:51:44;96066.13;;;11.63;60.93
64758;BME280;51193;45.588;5.376;2022-09-30T17:54:09;96068.84;;;11.60;61.05
64758;BME280;51193;45.588;5.376;2022-09-30T17:56:38;96076.75;;;11.58;60.98
64758;BME280;51193;45.588;5.376;2022-09-30T17:59:07;96076.94;;;11.54;60.89
64758;BME280;51193;45.588;5.376;2022-09-30T18:01:33;96084.78;;;11.54;60.92
64758;BME280;51193;45.588;5.376;2022-09-30T18:04:02;96095.31;;;11.52;61.08
64758;BME280;51193;45.588;5.376;2022-09-30T18:06:27;96102.31;;;11.52;61.31
64758;BME280;51193;45.588;5.376;2022-09-30T18:08:53;96110.19;;;11.52;61.08
64758;BME280;51193;45.588;5.376;2022-09-30T18:11:22;96112.84;;;11.50;61.33
64758;BME280;51193;45.588;5.376;2022-09-30T18:13:54;96124.19;;;11.51;61.13
64758;BME280;51193;45.588;5.376;2022-09-30T18:16:21;96125.09;;;11.50;61.41
64758;BME280;51193;45.588;5.376;2022-09-30T18:18:48;96124.19;;;11.51;61.20
64758;BME280;51193;45.588;5.376;2022-09-30T18:21:13;96130.28;;;11.51;61.31
64758;BME280;51193;45.588;5.376;2022-09-30T18:23:39;96125.03;;;11.51;61.25
64758;BME280;51193;45.588;5.376;2022-09-30T18:26:07;96127.66;;;11.51;61.46
64758;BME280;51193;45.588;5.376;2022-09-30T18:28:33;96127.66;;;11.51;61.50
64758;BME280;51193;45.588;5.376;2022-09-30T18:31:03;96124.13;;;11.52;61.76
64758;BME280;51193;45.588;5.376;2022-09-30T18:33:28;96131.13;;;11.52;61.59
64758;BME280;51193;45.588;5.376;2022-09-30T18:35:54;96139.81;;;11.52;61.76
64758;BME280;51193;45.588;5.376;2022-09-30T18:38:24;96131.13;;;11.52;61.60
64758;BME280;51193;45.588;5.376;2022-09-30T18:40:53;96138.09;;;11.53;61.59
64758;BME280;51193;45.588;5.376;2022-09-30T18:43:22;96135.53;;;11.51;61.61
64758;BME280;51193;45.588;5.376;2022-09-30T18:45:51;96137.28;;;11.51;61.55
64758;BME280;51193;45.588;5.376;2022-09-30T18:48:20;96134.66;;;11.51;61.92
64758;BME280;51193;45.588;5.376;2022-09-30T18:50:45;96133.88;;;11.48;61.86
64758;BME280;51193;45.588;5.376;2022-09-30T18:53:20;96131.31;;;11.47;61.94
64758;BME280;51193;45.588;5.376;2022-09-30T18:55:45;96137.44;;;11.46;61.72
64758;BME280;51193;45.588;5.376;2022-09-30T18:58:14;96123.56;;;11.44;61.80
64758;BME280;51193;45.588;5.376;2022-09-30T19:00:43;96116.63;;;11.43;61.66
64758;BME280;51193;45.588;5.376;2022-09-30T19:03:09;96118.44;;;11.41;61.76
64758;BME280;51193;45.588;5.376;2022-09-30T19:05:39;96117.66;;;11.39;61.50
64758;BME280;51193;45.588;5.376;2022-09-30T19:08:05;96122.94;;;11.37;61.65
64758;BME280;51193;45.588;5.376;2022-09-30T19:10:32;96128.31;;;11.34;61.77
64758;BME280;51193;45.588;5.376;2022-09-30T19:12:58;96132.78;;;11.31;61.91
64758;BME280;51193;45.588;5.376;2022-09-30T19:15:25;96139.94;;;11.25;61.75
64758;BME280;51193;45.588;5.376;2022-09-30T19:17:50;96135.88;;;11.18;61.93
64758;BME280;51193;45.588;5.376;2022-09-30T19:20:17;96137.78;;;11.13;62.31
64758;BME280;51193;45.588;5.376;2022-09-30T19:22:42;96138.88;;;11.07;62.06
64758;BME280;51193;45.588;5.376;2022-09-30T19:25:08;96136.31;;;11.06;62.15
64758;BME280;51193;45.588;5.376;2022-09-30T19:27:37;96136.41;;;11.03;62.22
64758;BME280;51193;45.588;5.376;2022-09-30T19:30:04;96140.97;;;10.98;62.30
64758;BME280;51193;45.588;5.376;2022-09-30T19:32:30;96144.59;;;10.94;62.19
64758;BME280;51193;45.588;5.376;2022-09-30T19:34:59;96139.53;;;10.89;62.49
64758;BME280;51193;45.588;5.376;2022-09-30T19:37:24;96153.56;;;10.86;62.27
64758;BME280;51193;45.588;5.376;2022-09-30T19:39:50;96151.06;;;10.83;62.19
64758;BME280;51193;45.588;5.376;2022-09-30T19:42:15;96157.19;;;10.82;62.49
64758;BME280;51193;45.588;5.376;2022-09-30T19:44:47;96161.59;;;10.80;62.56
64758;BME280;51193;45.588;5.376;2022-09-30T19:47:13;96164.22;;;10.80;62.63
64758;BME280;51193;45.588;5.376;2022-09-30T19:49:42;96159.13;;;10.77;62.61
64758;BME280;51193;45.588;5.376;2022-09-30T19:52:10;96164.34;;;10.77;62.41
64758;BME280;51193;45.588;5.376;2022-09-30T19:54:36;96165.25;;;10.76;62.69
64758;BME280;51193;45.588;5.376;2022-09-30T19:57:01;96172.28;;;10.74;62.68
64758;BME280;51193;45.588;5.376;2022-09-30T19:59:30;96179.31;;;10.72;62.64
64758;BME280;51193;45.588;5.376;2022-09-30T20:01:55;96181.94;;;10.72;62.73
64758;BME280;51193;45.588;5.376;2022-09-30T20:04:24;96196.91;;;10.69;62.70
64758;BME280;51193;45.588;5.376;2022-09-30T20:06:49;96203.94;;;10.66;62.63
64758;BME280;51193;45.588;5.376;2022-09-30T20:09:18;96193.69;;;10.60;63.12
64758;BME280;51193;45.588;5.376;2022-09-30T20:11:43;96205.16;;;10.56;63.19
64758;BME280;51193;45.588;5.376;2022-09-30T20:14:09;96202.63;;;10.53;63.02
64758;BME280;51193;45.588;5.376;2022-09-30T20:16:53;96206.25;;;10.49;63.45
64758;BME280;51193;45.588;5.376;2022-09-30T20:19:19;96207.25;;;10.45;63.38
64758;BME280;51193;45.588;5.376;2022-09-30T20:21:46;96213.41;;;10.44;63.11
64758;BME280;51193;45.588;5.376;2022-09-30T20:24:12;96216.91;;;10.43;63.24
64758;BME280;51193;45.588;5.376;2022-09-30T20:26:38;96222.09;;;10.44;63.49
64758;BME280;51193;45.588;5.376;2022-09-30T20:29:04;96229.94;;;10.44;63.18
64758;BME280;51193;45.588;5.376;2022-09-30T20:31:37;96227.28;;;10.46;63.21
64758;BME280;51193;45.588;5.376;2022-09-30T20:34:06;96221.16;;;10.45;63.39
64758;BME280;51193;45.588;5.376;2022-09-30T20:36:34;96220.28;;;10.46;63.49
64758;BME280;51193;45.588;5.376;2022-09-30T20:39:03;96226.38;;;10.45;63.21
64758;BME280;51193;45.588;5.376;2022-09-30T20:41:31;96236.84;;;10.45;63.39
64758;BME280;51193;45.588;5.376;2022-09-30T20:44:00;96237.75;;;10.44;63.33
64758;BME280;51193;45.588;5.376;2022-09-30T20:46:27;96236.97;;;10.42;63.22
64758;BME280;51193;45.588;5.376;2022-09-30T20:48:56;96242.25;;;10.39;63.30
64758;BME280;51193;45.588;5.376;2022-09-30T20:51:23;96245.81;;;10.38;63.54
64758;BME280;51193;45.588;5.376;2022-09-30T20:53:50;96255.41;;;10.38;63.49
64758;BME280;51193;45.588;5.376;2022-09-30T20:56:16;96257.22;;;10.36;63.46
64758;BME280;51193;45.588;5.376;2022-09-30T20:58:41;96249.44;;;10.33;63.50
64758;BME280;51193;45.588;5.376;2022-09-30T21:01:11;96250.38;;;10.32;63.78
64758;BME280;51193;45.588;5.376;2022-09-30T21:03:46;96249.56;;;10.28;63.66
64758;BME280;51193;45.588;5.376;2022-09-30T21:06:14;96252.25;;;10.25;63.43
64758;BME280;51193;45.588;5.376;2022-09-30T21:08:43;96253.25;;;10.21;63.74
64758;BME280;51193;45.588;5.376;2022-09-30T21:11:09;96252.44;;;10.19;63.66
64758;BME280;51193;45.588;5.376;2022-09-30T21:13:35;96264.66;;;10.18;63.51
64758;BME280;51193;45.588;5.376;2022-09-30T21:16:03;96259.56;;;10.15;63.75
64758;BME280;51193;45.588;5.376;2022-09-30T21:18:29;96265.72;;;10.13;63.84
64758;BME280;51193;45.588;5.376;2022-09-30T21:20:57;96264.84;;;10.12;63.64
64758;BME280;51193;45.588;5.376;2022-09-30T21:23:23;96271.91;;;10.08;63.75
64758;BME280;51193;45.588;5.376;2022-09-30T21:25:54;96291.13;;;10.07;63.80
64758;BME280;51193;45.588;5.376;2022-09-30T21:28:19;96291.16;;;10.06;63.78
64758;BME280;51193;45.588;5.376;2022-09-30T21:30:46;96296.41;;;10.04;63.88
64758;BME280;51193;45.588;5.376;2022-09-30T21:33:11;96305.19;;;10.03;64.17
64758;BME280;51193;45.588;5.376;2022-09-30T21:35:37;96304.31;;;10.03;64.00
64758;BME280;51193;45.588;5.376;2022-09-30T21:38:02;96307.81;;;10.02;64.29
64758;BME280;51193;45.588;5.376;2022-09-30T21:40:27;96305.22;;;10.02;64.08
64758;BME280;51193;45.588;5.376;2022-09-30T21:42:53;96309.59;;;10.01;64.19
64758;BME280;51193;45.588;5.376;2022-09-30T21:45:18;96313.97;;;10.01;64.11
64758;BME280;51193;45.588;5.376;2022-09-30T21:47:44;96318.31;;;10.00;64.05
64758;BME280;51193;45.588;5.376;2022-09-30T21:50:13;96319.25;;;9.98;64.18
64758;BME280;51193;45.588;5.376;2022-09-30T21:52:39;96319.25;;;9.98;64.19
64758;BME280;51193;45.588;5.376;2022-09-30T21:55:04;96317.59;;;9.95;64.25
64758;BME280;51193;45.588;5.376;2022-09-30T21:57:31;96320.22;;;9.95;64.53
64758;BME280;51193;45.588;5.376;2022-09-30T21:59:56;96320.25;;;9.94;64.23
64758;BME280;51193;45.588;5.376;2022-09-30T22:02:22;96320.28;;;9.92;64.42
64758;BME280;51193;45.588;5.376;2022-09-30T22:04:47;96316.00;;;9.90;64.57
64758;BME280;51193;45.588;5.376;2022-09-30T22:07:13;96314.34;;;9.87;64.56
64758;BME280;51193;45.588;5.376;2022-09-30T22:09:39;96315.31;;;9.84;64.58
64758;BME280;51193;45.588;5.376;2022-09-30T22:12:05;96314.50;;;9.82;64.83
64758;BME280;51193;45.588;5.376;2022-09-30T22:14:32;96318.00;;;9.81;64.84
64758;BME280;51193;45.588;5.376;2022-09-30T22:16:58;96307.69;;;9.77;64.96
64758;BME280;51193;45.588;5.376;2022-09-30T22:19:23;96309.50;;;9.73;64.80
64758;BME280;51193;45.588;5.376;2022-09-30T22:21:48;96314.78;;;9.72;64.99
64758;BME280;51193;45.588;5.376;2022-09-30T22:24:14;96309.63;;;9.70;64.88
64758;BME280;51193;45.588;5.376;2022-09-30T22:26:39;96307.03;;;9.69;64.91
64758;BME280;51193;45.588;5.376;2022-09-30T22:29:07;96308.00;;;9.66;64.89
64758;BME280;51193;45.588;5.376;2022-09-30T22:31:33;96303.66;;;9.65;64.85
64758;BME280;51193;45.588;5.376;2022-09-30T22:34:01;96312.34;;;9.65;64.96
64758;BME280;51193;45.588;5.376;2022-09-30T22:36:46;96306.28;;;9.63;65.01
64758;BME280;51193;45.588;5.376;2022-09-30T22:39:30;96303.69;;;9.63;65.23
64758;BME280;51193;45.588;5.376;2022-09-30T22:41:56;96311.53;;;9.63;65.29
64758;BME280;51193;45.588;5.376;2022-09-30T22:44:22;96308.03;;;9.64;65.32
64758;BME280;51193;45.588;5.376;2022-09-30T22:46:49;96307.22;;;9.62;65.10
64758;BME280;51193;45.588;5.376;2022-09-30T22:49:15;96301.19;;;9.60;65.19
64758;BME280;51193;45.588;5.376;2022-09-30T22:51:40;96309.97;;;9.58;65.68
64758;BME280;51193;45.588;5.376;2022-09-30T22:54:06;96294.28;;;9.58;65.56
64758;BME280;51193;45.588;5.376;2022-09-30T22:56:31;96300.41;;;9.57;65.67
64758;BME280;51193;45.588;5.376;2022-09-30T22:58:56;96291.72;;;9.56;65.64
64758;BME280;51193;45.588;5.376;2022-09-30T23:01:23;96290.00;;;9.55;65.52
64758;BME280;51193;45.588;5.376;2022-09-30T23:03:52;96291.75;;;9.55;65.62
64758;BME280;51193;45.588;5.376;2022-09-30T23:06:20;96281.31;;;9.55;65.67
64758;BME280;51193;45.588;5.376;2022-09-30T23:08:47;96289.09;;;9.56;65.52
64758;BME280;51193;45.588;5.376;2022-09-30T23:11:13;96292.56;;;9.57;65.65
64758;BME280;51193;45.588;5.376;2022-09-30T23:13:41;96295.19;;;9.57;65.51
64758;BME280;51193;45.588;5.376;2022-09-30T23:16:06;96298.63;;;9.57;65.63
64758;BME280;51193;45.588;5.376;2022-09-30T23:18:32;96300.44;;;9.55;65.70
64758;BME280;51193;45.588;5.376;2022-09-30T23:21:04;96310.03;;;9.55;65.50
64758;BME280;51193;45.588;5.376;2022-09-30T23:23:31;96310.97;;;9.52;65.46
64758;BME280;51193;45.588;5.376;2022-09-30T23:25:59;96315.34;;;9.52;65.61
64758;BME280;51193;45.588;5.376;2022-09-30T23:28:24;96317.88;;;9.53;65.59
64758;BME280;51193;45.588;5.376;2022-09-30T23:30:50;96323.09;;;9.53;65.62
64758;BME280;51193;45.588;5.376;2022-09-30T23:33:15;96319.66;;;9.53;65.59
64758;BME280;51193;45.588;5.376;2022-09-30T23:35:44;96314.44;;;9.53;65.59
64758;BME280;51193;45.588;5.376;2022-09-30T23:38:09;96323.16;;;9.52;65.65
64758;BME280;51193;45.588;5.376;2022-09-30T23:40:40;96326.66;;;9.51;65.68
64758;BME280;51193;45.588;5.376;2022-09-30T23:43:06;96318.88;;;9.49;65.63
64758;BME280;51193;45.588;5.376;2022-09-30T23:45:31;96325.84;;;9.49;65.63
64758;BME280;51193;45.588;5.376;2022-09-30T23:47:57;96321.47;;;9.49;65.85
64758;BME280;51193;45.588;5.376;2022-09-30T23:50:23;96327.66;;;9.46;65.86
64758;BME280;51193;45.588;5.376;2022-09-30T23:52:49;96335.50;;;9.45;65.76
64758;BME280;51193;45.588;5.376;2022-09-30T23:55:17;96344.22;;;9.45;65.83
64758;BME280;51193;45.588;5.376;2022-09-30T23:57:45;96350.34;;;9.43;65.95
